Lake View, NY

2:49 AM EST on February 01, 2015 (GMT -0500)
Niagara Falls International | Change Station
CLOSE
Current Station
Airport
Location: Niagara Falls,
Elevation: 584 ft
Nearby Weather Stations
Active Advisory: Winter Storm Warning

Elev 584 ft 43.11 °N, 78.94 °W | Updated 46 minutes ago

Overcast
Overcast
27 °F
Feels Like 17 °F
N
10
Wind Variable Wind from West

Today
High -- | Low -- °F
--% Chance of Precip.
Yesterday
High -- | Low -- °F
Precip. -- in
7:30 AM 5:28 PM
Waxing Gibbous, 94% visible
Pressure 30.15 in
Visibility 7.0 miles
Clouds Scattered Clouds 2000 ft
Overcast 4200 ft
Windchill 17 °F
Dew Point 22 °F
Humidity 81%
Rainfall 0.00 in
Snow Depth Not available.
UV 0 out of 12
Pollen .10 out of 12
Air Quality Not available.
Flu Activity Not available.
SPECI KIAG 010703Z AUTO 26009KT 7SM SCT020 OVC042 M03/M06 A3015 RMK AO2 T10281056

More Conditions Fewer Conditions

Pressure 30.15 in
Visibility 7.0 miles
Clouds Scattered Clouds 2000 ft
Overcast 4200 ft
Windchill 17 °F
Dew Point 22 °F
Humidity 81%
Rainfall 0.00 in
Snow Depth Not available.
UV 0 out of 12
Pollen .10 out of 12
Air Quality Not available.
Flu Activity Not available.
SPECI KIAG 010703Z AUTO 26009KT 7SM SCT020 OVC042 M03/M06 A3015 RMK AO2 T10281056

More Conditions Fewer Conditions

10-Day Weather Forecast

Almanac

Astronomy

Feb. 01, 2015 Rise Set
Actual Time
Civil Twilight
Nautical Twilight
Astronomical Twilight
Moon
Length of Visible Light
Length of Day
Tomorrow will be .
, % of the Moon is Illuminated

Today's Extremes

State Highs State Lows

Community

WunderPhotos

Upload Photos

1,792,327 photos uploaded!

WunderBlogs® & News

Nearby

Air Quality

  Air Quality AQ Index Pollutant
Not available.

Snow Depth

Station Depth Elevation

Earthquake Activity

City Distance Mag. Time & Date
Minimum magnitude displayed is 2.5.

Coastal Water Temperatures

Place Temperature

Nearby Weather Stations